Time;durP1;ratioP1;P1;durP2;ratioP2;P2;SDS_P1;SDS_P2;PMS_P1;PMS_P2;Temp;Humidity;BMP_temperature;BMP_pressure;BME280_temperature;BME280_humidity;BME280_pressure;Samples;Min_cycle;Max_cycle;Signal;HPM_P1;HPM_P2
2023/05/30 01:03:00;;;;;;;44.25;11.10;;;;;;;;;;2006445;23;20035;-75
2023/05/30 01:04:22;;;;;;;28.90;9.40;;;;;;;;;;2012852;29;20078;-75
2023/05/30 01:05:43;;;;;;;16.65;8.45;;;;;;;;;;2010512;29;20520;-75
2023/05/30 01:07:06;;;;;;;21.65;9.00;;;;;;;;;;2019168;29;20480;-75
2023/05/30 01:08:27;;;;;;;27.15;8.90;;;;;;;;;;2022559;29;20100;-75
2023/05/30 01:09:48;;;;;;;23.63;9.38;;;;;;;;;;2014701;29;20033;-75
2023/05/30 01:11:09;;;;;;;34.17;10.10;;;;;;;;;;2020491;29;20069;-75
2023/05/30 01:12:36;;;;;;;22.50;10.20;;;;;;;;;;2021380;29;20036;-75
2023/05/30 01:14:16;;;;;;;39.15;11.88;;;;;;;;;;2015634;29;20081;-75
2023/05/30 01:15:41;;;;;;;37.10;12.07;;;;;;;;;;2015850;29;20440;-75
2023/05/30 01:17:06;;;;;;;32.15;10.40;;;;;;;;;;2020123;29;20028;-75
2023/05/30 01:18:30;;;;;;;32.22;9.93;;;;;;;;;;2021831;29;20041;-75
2023/05/30 01:19:53;;;;;;;20.42;9.45;;;;;;;;;;2015182;29;20077;-75
2023/05/30 01:21:15;;;;;;;24.13;9.20;;;;;;;;;;2020755;29;20101;-75
2023/05/30 01:22:38;;;;;;;22.45;8.73;;;;;;;;;;2021217;29;20076;-75
2023/05/30 01:24:00;;;;;;;29.98;9.40;;;;;;;;;;2019889;29;20036;-75
2023/05/30 01:25:26;;;;;;;25.90;9.10;;;;;;;;;;2013843;29;20477;-76
2023/05/30 01:26:46;;;;;;;27.08;9.63;;;;;;;;;;2014953;29;20077;-75
2023/05/30 01:28:15;;;;;;;20.42;8.15;;;;;;;;;;2019392;29;20036;-75
2023/05/30 01:29:36;;;;;;;18.00;8.15;;;;;;;;;;2023594;29;20037;-75
2023/05/30 01:30:57;;;;;;;20.15;8.88;;;;;;;;;;2017593;29;20033;-75
2023/05/30 01:32:18;;;;;;;23.33;10.15;;;;;;;;;;2019845;29;20033;-75
2023/05/30 01:33:41;;;;;;;26.90;9.48;;;;;;;;;;2013275;29;20033;-74
2023/05/30 01:35:03;;;;;;;22.80;9.02;;;;;;;;;;2018122;29;20037;-75
2023/05/30 01:36:25;;;;;;;25.50;9.82;;;;;;;;;;2022835;29;20032;-75
2023/05/30 01:37:46;;;;;;;25.58;10.63;;;;;;;;;;2020125;29;20053;-75
2023/05/30 01:39:07;;;;;;;24.02;9.20;;;;;;;;;;2013417;29;20523;-74
2023/05/30 01:40:28;;;;;;;26.85;9.57;;;;;;;;;;2016928;29;20037;-74
2023/05/30 01:42:08;;;;;;;21.17;8.30;;;;;;;;;;2021687;29;20044;-75
2023/05/30 01:43:39;;;;;;;20.90;9.20;;;;;;;;;;2021566;29;20432;-75
2023/05/30 01:45:03;;;;;;;28.75;8.93;;;;;;;;;;2022645;29;20036;-75
2023/05/30 01:46:28;;;;;;;23.05;8.05;;;;;;;;;;2021656;29;20520;-75
2023/05/30 01:47:58;;;;;;;20.48;8.95;;;;;;;;;;2023468;29;20036;-75
2023/05/30 01:49:45;;;;;;;28.05;9.43;;;;;;;;;;2014569;29;20514;-75
2023/05/30 01:51:10;;;;;;;35.97;12.80;;;;;;;;;;1990167;29;20236;-74
2023/05/30 01:52:32;;;;;;;27.65;10.25;;;;;;;;;;2018935;29;20409;-75
2023/05/30 01:53:57;;;;;;;22.05;8.98;;;;;;;;;;2023008;29;20033;-75
2023/05/30 01:55:20;;;;;;;28.45;9.07;;;;;;;;;;2025827;29;20029;-74
2023/05/30 01:56:42;;;;;;;16.83;7.95;;;;;;;;;;2023810;29;20037;-75
2023/05/30 01:58:04;;;;;;;22.30;8.63;;;;;;;;;;2021820;29;20041;-75
2023/05/30 01:59:26;;;;;;;17.58;9.18;;;;;;;;;;2014912;29;20050;-75
2023/05/30 02:00:47;;;;;;;28.05;9.68;;;;;;;;;;2010075;29;20074;-75
2023/05/30 02:02:08;;;;;;;24.65;8.95;;;;;;;;;;2013512;29;20573;-75
2023/05/30 02:03:29;;;;;;;29.50;9.05;;;;;;;;;;2017998;29;20136;-75
2023/05/30 02:04:50;;;;;;;25.42;9.10;;;;;;;;;;2022956;29;20041;-75
2023/05/30 02:06:11;;;;;;;25.35;9.27;;;;;;;;;;2022527;29;20516;-75
2023/05/30 02:07:32;;;;;;;21.02;8.13;;;;;;;;;;2022356;29;20108;-75
2023/05/30 02:08:53;;;;;;;24.88;8.77;;;;;;;;;;2015685;29;20088;-75
2023/05/30 02:10:14;;;;;;;27.75;9.88;;;;;;;;;;2019375;29;20475;-75
2023/05/30 02:11:35;;;;;;;27.80;9.77;;;;;;;;;;2024821;29;20032;-75
2023/05/30 02:12:56;;;;;;;22.40;9.02;;;;;;;;;;2021134;29;20045;-75
2023/05/30 02:14:16;;;;;;;39.58;12.68;;;;;;;;;;2007230;29;20123;-75
2023/05/30 02:15:37;;;;;;;39.45;12.18;;;;;;;;;;2012094;29;20473;-79
2023/05/30 02:17:02;;;;;;;24.80;9.63;;;;;;;;;;2016523;29;21453;-78
2023/05/30 02:18:27;;;;;;;23.10;9.23;;;;;;;;;;2021718;29;20123;-79
2023/05/30 02:19:48;;;;;;;22.85;9.80;;;;;;;;;;2021662;29;20048;-79
2023/05/30 02:21:09;;;;;;;27.33;9.23;;;;;;;;;;2023910;29;20032;-79
2023/05/30 02:22:30;;;;;;;27.13;9.38;;;;;;;;;;2023675;29;20096;-79
2023/05/30 02:23:51;;;;;;;25.45;9.82;;;;;;;;;;2022579;29;20041;-79
2023/05/30 02:25:12;;;;;;;30.77;10.77;;;;;;;;;;2023119;29;20073;-79
2023/05/30 02:26:34;;;;;;;40.25;13.63;;;;;;;;;;2015214;29;20049;-79
2023/05/30 02:27:55;;;;;;;44.25;15.35;;;;;;;;;;2002272;29;20048;-79
2023/05/30 02:29:16;;;;;;;32.10;11.52;;;;;;;;;;2016827;29;20086;-78
2023/05/30 02:30:37;;;;;;;25.25;10.32;;;;;;;;;;2013266;29;20045;-79
2023/05/30 02:31:58;;;;;;;26.75;9.65;;;;;;;;;;2018672;29;20488;-79
2023/05/30 02:33:19;;;;;;;27.60;10.40;;;;;;;;;;2021631;29;20104;-79
2023/05/30 02:34:39;;;;;;;25.13;10.23;;;;;;;;;;2013067;29;20037;-79
2023/05/30 02:36:00;;;;;;;27.67;10.25;;;;;;;;;;2011466;29;20033;-79
2023/05/30 02:37:21;;;;;;;25.08;10.35;;;;;;;;;;2016754;29;20036;-78
2023/05/30 02:38:42;;;;;;;24.35;9.60;;;;;;;;;;2014208;29;20117;-77
2023/05/30 02:40:03;;;;;;;47.53;15.55;;;;;;;;;;2003895;29;20627;-78
2023/05/30 02:41:24;;;;;;;47.95;15.93;;;;;;;;;;2005321;29;20096;-78
2023/05/30 02:42:45;;;;;;;45.90;14.30;;;;;;;;;;2007137;29;20040;-78
2023/05/30 02:44:06;;;;;;;48.75;15.05;;;;;;;;;;2007345;29;20040;-78
2023/05/30 02:45:27;;;;;;;46.13;15.10;;;;;;;;;;2001825;29;20059;-78
2023/05/30 02:46:48;;;;;;;29.13;10.00;;;;;;;;;;2016696;29;20049;-79
2023/05/30 02:48:09;;;;;;;22.20;9.20;;;;;;;;;;2022018;29;20100;-78
2023/05/30 02:49:30;;;;;;;22.35;10.25;;;;;;;;;;2014572;29;20064;-78
2023/05/30 02:50:51;;;;;;;48.35;15.55;;;;;;;;;;1997985;29;20041;-78
2023/05/30 02:52:12;;;;;;;41.95;13.77;;;;;;;;;;1997429;29;20148;-78
2023/05/30 02:53:33;;;;;;;45.22;14.02;;;;;;;;;;2005941;29;20426;-78
2023/05/30 02:54:54;;;;;;;44.47;14.80;;;;;;;;;;1999155;29;20047;-79
2023/05/30 02:56:15;;;;;;;47.33;14.80;;;;;;;;;;2006054;29;21813;-78
2023/05/30 02:57:36;;;;;;;59.22;15.90;;;;;;;;;;1999196;29;20045;-78
2023/05/30 02:58:59;;;;;;;54.65;15.32;;;;;;;;;;2004447;29;20045;-78
2023/05/30 03:00:20;;;;;;;44.67;14.88;;;;;;;;;;2007772;29;21741;-78
2023/05/30 03:01:41;;;;;;;39.45;13.75;;;;;;;;;;2002876;29;20108;-79
2023/05/30 03:03:02;;;;;;;27.27;11.15;;;;;;;;;;2012887;29;20428;-78
2023/05/30 03:04:23;;;;;;;30.52;11.30;;;;;;;;;;2019127;29;20120;-78
2023/05/30 03:05:46;;;;;;;26.48;9.75;;;;;;;;;;2018560;29;20547;-78
2023/05/30 03:07:08;;;;;;;24.23;9.63;;;;;;;;;;2020928;29;20041;-79
2023/05/30 03:08:28;;;;;;;29.10;9.85;;;;;;;;;;2021702;29;20037;-78
2023/05/30 03:09:49;;;;;;;28.00;9.57;;;;;;;;;;2011182;29;20065;-78
2023/05/30 03:11:11;;;;;;;27.50;11.25;;;;;;;;;;2020114;29;20036;-78
2023/05/30 03:12:31;;;;;;;27.60;10.60;;;;;;;;;;2022045;29;20131;-78
2023/05/30 03:13:52;;;;;;;23.13;9.32;;;;;;;;;;2014093;29;20549;-78
2023/05/30 03:15:13;;;;;;;19.15;9.60;;;;;;;;;;2020859;29;20032;-79
2023/05/30 03:16:34;;;;;;;21.77;9.65;;;;;;;;;;2022952;29;20041;-78
2023/05/30 03:17:57;;;;;;;25.45;9.05;;;;;;;;;;2021452;29;20481;-79
2023/05/30 03:19:18;;;;;;;23.70;9.93;;;;;;;;;;2020675;29;20415;-78
2023/05/30 03:20:40;;;;;;;23.60;9.23;;;;;;;;;;2022174;29;20036;-78
2023/05/30 03:22:01;;;;;;;18.58;9.27;;;;;;;;;;2022668;29;20492;-78
2023/05/30 03:23:22;;;;;;;28.38;11.05;;;;;;;;;;2012613;29;20186;-78
2023/05/30 03:24:42;;;;;;;27.58;10.45;;;;;;;;;;2018393;29;20067;-78
2023/05/30 03:26:03;;;;;;;21.90;9.00;;;;;;;;;;2012593;29;20451;-79
2023/05/30 03:27:24;;;;;;;24.80;9.55;;;;;;;;;;2018174;29;20487;-78
2023/05/30 03:28:46;;;;;;;25.60;9.00;;;;;;;;;;2022105;29;20040;-78
2023/05/30 03:30:07;;;;;;;21.98;9.20;;;;;;;;;;2015825;29;20037;-78
2023/05/30 03:31:29;;;;;;;30.13;11.23;;;;;;;;;;2016007;29;20408;-78
2023/05/30 03:32:50;;;;;;;27.17;9.85;;;;;;;;;;2017903;29;20032;-78
2023/05/30 03:34:10;;;;;;;23.90;10.27;;;;;;;;;;2021801;29;20593;-78
2023/05/30 03:35:31;;;;;;;26.02;10.73;;;;;;;;;;2021654;29;20104;-79
2023/05/30 03:36:52;;;;;;;24.92;8.95;;;;;;;;;;2021802;29;20053;-78
2023/05/30 03:38:13;;;;;;;19.73;9.23;;;;;;;;;;2013707;29;20033;-78
2023/05/30 03:39:34;;;;;;;50.45;15.43;;;;;;;;;;2003725;29;20875;-78
2023/05/30 03:40:55;;;;;;;20.80;9.38;;;;;;;;;;2015794;29;20044;-78
2023/05/30 03:42:16;;;;;;;51.65;17.02;;;;;;;;;;2012770;29;20041;-78
2023/05/30 03:43:37;;;;;;;42.63;14.00;;;;;;;;;;2007445;29;20887;-78
2023/05/30 03:44:58;;;;;;;54.95;16.20;;;;;;;;;;2006924;29;20071;-78
2023/05/30 03:46:21;;;;;;;49.78;15.77;;;;;;;;;;2006533;29;20052;-79
2023/05/30 03:47:42;;;;;;;23.13;9.65;;;;;;;;;;2016358;29;20035;-79
2023/05/30 03:49:03;;;;;;;22.83;9.70;;;;;;;;;;2022045;29;20032;-78
2023/05/30 03:50:24;;;;;;;26.65;10.50;;;;;;;;;;2024002;29;20029;-78
2023/05/30 03:51:44;;;;;;;17.83;9.75;;;;;;;;;;2021466;29;20349;-78
2023/05/30 03:53:05;;;;;;;21.92;9.38;;;;;;;;;;2024524;29;20054;-78
2023/05/30 03:54:26;;;;;;;18.17;8.48;;;;;;;;;;2012918;29;20454;-78
2023/05/30 03:55:47;;;;;;;17.55;9.00;;;;;;;;;;2023178;29;20041;-78
2023/05/30 03:57:08;;;;;;;24.27;10.15;;;;;;;;;;2024346;29;20052;-78
2023/05/30 03:58:29;;;;;;;21.27;8.80;;;;;;;;;;2018618;29;20045;-80
2023/05/30 03:59:50;;;;;;;16.40;8.23;;;;;;;;;;2008716;29;20049;-79
2023/05/30 04:01:11;;;;;;;22.33;9.50;;;;;;;;;;2018952;29;20507;-78
2023/05/30 04:02:32;;;;;;;21.80;8.93;;;;;;;;;;2023152;29;20047;-79
2023/05/30 04:03:53;;;;;;;26.23;11.27;;;;;;;;;;2016584;29;20524;-79
2023/05/30 04:05:14;;;;;;;23.15;9.35;;;;;;;;;;2017645;29;20041;-79
2023/05/30 04:06:36;;;;;;;20.58;9.73;;;;;;;;;;2017754;29;20041;-79
2023/05/30 04:07:57;;;;;;;12.40;8.70;;;;;;;;;;2015297;29;20029;-79
2023/05/30 04:09:18;;;;;;;18.20;9.63;;;;;;;;;;2016225;29;20040;-78
2023/05/30 04:10:39;;;;;;;19.33;8.88;;;;;;;;;;2016729;29;20040;-80
2023/05/30 04:12:01;;;;;;;20.58;10.23;;;;;;;;;;2021120;29;20500;-79
2023/05/30 04:13:22;;;;;;;23.33;9.35;;;;;;;;;;2017767;29;20037;-79
2023/05/30 04:14:42;;;;;;;21.58;8.90;;;;;;;;;;2019184;29;20051;-79
2023/05/30 04:16:03;;;;;;;22.20;9.57;;;;;;;;;;2019493;29;20397;-79
2023/05/30 04:17:24;;;;;;;19.08;9.65;;;;;;;;;;2016876;29;20033;-79
2023/05/30 04:18:47;;;;;;;27.13;10.45;;;;;;;;;;2016509;29;20025;-79
2023/05/30 04:20:12;;;;;;;31.33;11.13;;;;;;;;;;2017325;29;20724;-79
2023/05/30 04:21:33;;;;;;;17.65;8.50;;;;;;;;;;2018378;29;20033;-79
2023/05/30 04:22:54;;;;;;;29.73;11.52;;;;;;;;;;2020077;29;20029;-79
2023/05/30 04:24:15;;;;;;;25.23;10.32;;;;;;;;;;2013846;29;20033;-79
2023/05/30 04:25:36;;;;;;;22.80;9.75;;;;;;;;;;2013563;29;20041;-79
2023/05/30 04:26:57;;;;;;;20.60;9.68;;;;;;;;;;2012714;29;20044;-79
2023/05/30 04:28:19;;;;;;;29.17;10.05;;;;;;;;;;2019127;29;20100;-81
2023/05/30 04:29:41;;;;;;;17.17;9.25;;;;;;;;;;2013955;29;20034;-79
2023/05/30 04:31:05;;;;;;;23.98;10.05;;;;;;;;;;2011858;29;20041;-79
2023/05/30 04:32:29;;;;;;;24.95;9.75;;;;;;;;;;2019520;29;20040;-79
2023/05/30 04:33:54;;;;;;;29.75;10.05;;;;;;;;;;2015520;29;20093;-79
2023/05/30 04:35:15;;;;;;;22.75;9.68;;;;;;;;;;2019114;29;20041;-79
2023/05/30 04:36:36;;;;;;;22.90;10.32;;;;;;;;;;2013956;29;20033;-79
2023/05/30 04:37:58;;;;;;;28.25;10.15;;;;;;;;;;2017156;29;20044;-80
2023/05/30 04:39:19;;;;;;;26.92;10.50;;;;;;;;;;2018978;29;20036;-79
2023/05/30 04:40:40;;;;;;;16.63;8.85;;;;;;;;;;2020910;29;20036;-79
2023/05/30 04:42:04;;;;;;;25.08;10.13;;;;;;;;;;2021288;29;20532;-79
2023/05/30 04:43:26;;;;;;;24.23;9.85;;;;;;;;;;2012047;29;20113;-79
2023/05/30 04:44:47;;;;;;;15.00;8.68;;;;;;;;;;2019544;29;20048;-79
2023/05/30 04:46:08;;;;;;;23.15;9.77;;;;;;;;;;2012452;29;20105;-78
2023/05/30 04:47:30;;;;;;;30.77;10.23;;;;;;;;;;2020666;29;20491;-79
2023/05/30 04:48:55;;;;;;;23.92;9.88;;;;;;;;;;2014194;29;20037;-79
2023/05/30 04:50:16;;;;;;;28.67;10.30;;;;;;;;;;2009717;29;20328;-79
2023/05/30 04:51:37;;;;;;;19.05;9.52;;;;;;;;;;2011224;29;20052;-79
2023/05/30 04:52:58;;;;;;;31.02;10.07;;;;;;;;;;2011669;29;20113;-78
2023/05/30 04:54:19;;;;;;;30.23;10.95;;;;;;;;;;2011635;29;20049;-79
2023/05/30 04:55:41;;;;;;;27.60;11.18;;;;;;;;;;2018512;29;20341;-78
2023/05/30 04:57:02;;;;;;;27.70;10.75;;;;;;;;;;2014333;29;20037;-79
2023/05/30 04:58:23;;;;;;;37.78;11.60;;;;;;;;;;2009359;29;20457;-79
2023/05/30 04:59:44;;;;;;;28.25;9.75;;;;;;;;;;2010147;29;20109;-80
2023/05/30 05:01:09;;;;;;;31.23;11.60;;;;;;;;;;2017735;29;20117;-79
2023/05/30 05:02:30;;;;;;;24.98;10.75;;;;;;;;;;2007826;29;20591;-79
2023/05/30 05:03:51;;;;;;;25.48;11.82;;;;;;;;;;2011941;29;20481;-79
2023/05/30 05:05:12;;;;;;;34.38;11.43;;;;;;;;;;2019314;29;20032;-79
2023/05/30 05:06:33;;;;;;;18.92;9.55;;;;;;;;;;2021685;29;20044;-79
2023/05/30 05:07:54;;;;;;;21.58;9.63;;;;;;;;;;2021915;29;20238;-79
2023/05/30 05:09:15;;;;;;;18.77;9.48;;;;;;;;;;2020744;29;20073;-79
2023/05/30 05:10:36;;;;;;;22.42;9.95;;;;;;;;;;2014907;29;20037;-79
2023/05/30 05:11:57;;;;;;;29.85;10.45;;;;;;;;;;2019479;29;20029;-79
2023/05/30 05:13:18;;;;;;;26.67;10.15;;;;;;;;;;2023014;29;20082;-79
2023/05/30 05:14:42;;;;;;;23.75;10.20;;;;;;;;;;2021276;29;20062;-79
2023/05/30 05:16:06;;;;;;;20.92;10.05;;;;;;;;;;2009952;29;20042;-79
2023/05/30 05:17:27;;;;;;;25.92;10.50;;;;;;;;;;2020468;29;20033;-79
2023/05/30 05:18:48;;;;;;;24.50;9.27;;;;;;;;;;2019314;29;20056;-79
2023/05/30 05:20:09;;;;;;;38.63;12.73;;;;;;;;;;2011264;29;20049;-79
2023/05/30 05:21:30;;;;;;;23.80;9.70;;;;;;;;;;2020592;29;20044;-79
2023/05/30 05:22:53;;;;;;;28.83;10.05;;;;;;;;;;2019209;29;20953;-79
2023/05/30 05:24:14;;;;;;;23.52;10.15;;;;;;;;;;2015656;29;20037;-79
2023/05/30 05:25:35;;;;;;;22.30;9.57;;;;;;;;;;2020081;29;20149;-79
2023/05/30 05:26:56;;;;;;;24.23;9.68;;;;;;;;;;2013532;29;20048;-79
2023/05/30 05:28:17;;;;;;;20.02;9.75;;;;;;;;;;2013515;29;20408;-78
2023/05/30 05:29:38;;;;;;;39.80;11.43;;;;;;;;;;2018064;29;20511;-75
2023/05/30 05:30:59;;;;;;;24.75;10.82;;;;;;;;;;2021079;29;20059;-76
2023/05/30 05:32:19;;;;;;;26.02;9.75;;;;;;;;;;2018225;29;20037;-76
2023/05/30 05:33:40;;;;;;;25.50;10.50;;;;;;;;;;2022750;29;20413;-76
2023/05/30 05:35:02;;;;;;;16.20;8.55;;;;;;;;;;2023966;29;20037;-76
2023/05/30 05:36:23;;;;;;;26.77;10.52;;;;;;;;;;2015816;29;20085;-76
2023/05/30 05:37:44;;;;;;;20.58;9.35;;;;;;;;;;2013484;29;20033;-75
2023/05/30 05:39:05;;;;;;;29.33;9.98;;;;;;;;;;2017035;29;20028;-76
2023/05/30 05:40:25;;;;;;;30.02;11.52;;;;;;;;;;2019585;29;20044;-76
2023/05/30 05:41:46;;;;;;;26.17;10.40;;;;;;;;;;2020370;29;20112;-76
2023/05/30 05:43:07;;;;;;;20.05;10.07;;;;;;;;;;2016811;29;20490;-76
2023/05/30 05:44:29;;;;;;;26.10;10.88;;;;;;;;;;2018786;29;20403;-76
2023/05/30 05:45:51;;;;;;;41.53;14.57;;;;;;;;;;2018465;29;20043;-76
2023/05/30 05:47:12;;;;;;;21.77;10.68;;;;;;;;;;2020030;29;20072;-76
2023/05/30 05:48:33;;;;;;;35.65;11.98;;;;;;;;;;2021084;29;20040;-76
2023/05/30 05:49:54;;;;;;;24.10;10.55;;;;;;;;;;2020646;29;20041;-76
2023/05/30 05:51:15;;;;;;;22.98;10.55;;;;;;;;;;2012064;29;20354;-76
2023/05/30 05:52:35;;;;;;;27.88;11.75;;;;;;;;;;2013690;29;20074;-75
2023/05/30 05:53:56;;;;;;;28.05;10.32;;;;;;;;;;2017579;29;20598;-75
2023/05/30 05:55:17;;;;;;;15.13;8.68;;;;;;;;;;2015918;29;20037;-76
2023/05/30 05:56:38;;;;;;;25.33;10.27;;;;;;;;;;2011924;29;20041;-76
2023/05/30 05:57:59;;;;;;;22.88;9.60;;;;;;;;;;2018697;29;20481;-76
2023/05/30 05:59:20;;;;;;;21.00;8.95;;;;;;;;;;2024057;29;20093;-76
2023/05/30 06:00:41;;;;;;;20.48;9.23;;;;;;;;;;2016949;29;20030;-76
2023/05/30 06:02:02;;;;;;;24.85;9.80;;;;;;;;;;2022193;29;20044;-76
2023/05/30 06:03:22;;;;;;;23.13;10.20;;;;;;;;;;2024965;29;20429;-76
2023/05/30 06:04:43;;;;;;;20.02;9.80;;;;;;;;;;2020412;29;20066;-76
2023/05/30 06:06:04;;;;;;;17.27;8.85;;;;;;;;;;2017246;29;20040;-75
2023/05/30 06:07:26;;;;;;;32.60;12.98;;;;;;;;;;2018154;29;20105;-76
2023/05/30 06:08:46;;;;;;;19.75;9.88;;;;;;;;;;2023019;29;20052;-74
2023/05/30 06:10:08;;;;;;;30.30;11.82;;;;;;;;;;2022906;29;20059;-74
2023/05/30 06:11:29;;;;;;;17.60;10.43;;;;;;;;;;2022475;29;20544;-74
2023/05/30 06:12:49;;;;;;;24.05;11.55;;;;;;;;;;2021116;29;20055;-74
2023/05/30 06:14:12;;;;;;;25.65;9.98;;;;;;;;;;2016630;29;20318;-74
2023/05/30 06:15:32;;;;;;;25.40;10.93;;;;;;;;;;2019439;29;20024;-74
2023/05/30 06:16:54;;;;;;;30.35;10.48;;;;;;;;;;2016875;29;20044;-74
2023/05/30 06:18:14;;;;;;;23.33;10.50;;;;;;;;;;2021579;29;20100;-74
2023/05/30 06:19:35;;;;;;;19.00;9.95;;;;;;;;;;2022324;29;20085;-74
2023/05/30 06:20:56;;;;;;;13.65;8.55;;;;;;;;;;2017618;29;20037;-74
2023/05/30 06:22:18;;;;;;;21.63;11.27;;;;;;;;;;2017105;29;20045;-75
2023/05/30 06:23:39;;;;;;;20.35;10.07;;;;;;;;;;2021207;29;20036;-74
2023/05/30 06:25:00;;;;;;;18.47;9.13;;;;;;;;;;2021476;29;20044;-74
2023/05/30 06:26:21;;;;;;;22.95;12.75;;;;;;;;;;2024854;29;20036;-74
2023/05/30 06:27:42;;;;;;;20.70;10.35;;;;;;;;;;2019081;29;20473;-73
2023/05/30 06:29:03;;;;;;;18.60;10.00;;;;;;;;;;2023619;29;20036;-74
2023/05/30 06:30:24;;;;;;;19.50;10.60;;;;;;;;;;2016355;29;20121;-74
2023/05/30 06:31:45;;;;;;;20.73;10.32;;;;;;;;;;2014436;29;20084;-71
2023/05/30 06:33:06;;;;;;;24.10;10.48;;;;;;;;;;2023007;29;20039;-71
2023/05/30 06:34:27;;;;;;;25.77;11.20;;;;;;;;;;2024395;29;20031;-71
2023/05/30 06:35:48;;;;;;;20.17;9.27;;;;;;;;;;2016434;29;20056;-71
2023/05/30 06:37:10;;;;;;;22.95;10.57;;;;;;;;;;2020625;29;20032;-71
2023/05/30 06:38:31;;;;;;;23.35;11.02;;;;;;;;;;2016977;29;20037;-71
2023/05/30 06:39:52;;;;;;;21.00;10.65;;;;;;;;;;2017235;29;20033;-71
2023/05/30 06:41:13;;;;;;;20.17;10.57;;;;;;;;;;2024985;29;20467;-71
2023/05/30 06:42:34;;;;;;;22.08;11.05;;;;;;;;;;2023827;29;20044;-71
2023/05/30 06:43:55;;;;;;;20.20;10.52;;;;;;;;;;2023097;29;20036;-72
2023/05/30 06:45:16;;;;;;;18.83;9.50;;;;;;;;;;2013961;29;20521;-71
2023/05/30 06:46:37;;;;;;;20.17;10.23;;;;;;;;;;2014858;29;20033;-71
2023/05/30 06:47:59;;;;;;;23.40;10.43;;;;;;;;;;2021018;29;20037;-71
2023/05/30 06:49:20;;;;;;;22.27;10.75;;;;;;;;;;2021206;29;20041;-71
2023/05/30 06:50:41;;;;;;;23.45;10.98;;;;;;;;;;2019553;29;20041;-71
2023/05/30 06:52:02;;;;;;;22.63;9.80;;;;;;;;;;2021937;29;20029;-71
2023/05/30 06:53:22;;;;;;;25.15;10.23;;;;;;;;;;2014839;29;20417;-70
2023/05/30 06:54:43;;;;;;;19.98;9.57;;;;;;;;;;2016240;29;20077;-71
2023/05/30 06:56:04;;;;;;;19.33;10.70;;;;;;;;;;2019748;29;20031;-71
2023/05/30 06:57:25;;;;;;;22.92;11.27;;;;;;;;;;2021902;29;20043;-71
2023/05/30 06:58:46;;;;;;;24.23;11.00;;;;;;;;;;2022636;29;20040;-70
2023/05/30 07:00:08;;;;;;;17.08;10.23;;;;;;;;;;2021623;29;20353;-71
2023/05/30 07:01:29;;;;;;;17.83;10.48;;;;;;;;;;2022626;29;20044;-72
2023/05/30 07:02:50;;;;;;;22.98;10.30;;;;;;;;;;2023070;29;20037;-71
2023/05/30 07:04:11;;;;;;;23.30;10.45;;;;;;;;;;2013352;29;20560;-71
2023/05/30 07:05:32;;;;;;;21.58;9.00;;;;;;;;;;2020764;29;20037;-71
2023/05/30 07:06:53;;;;;;;18.80;9.85;;;;;;;;;;2023169;29;20036;-72
2023/05/30 07:08:14;;;;;;;17.08;8.65;;;;;;;;;;2024561;29;20033;-71
2023/05/30 07:09:35;;;;;;;18.63;9.90;;;;;;;;;;2014566;29;20089;-71
2023/05/30 07:10:56;;;;;;;20.35;9.48;;;;;;;;;;2021836;29;20408;-72
2023/05/30 07:12:17;;;;;;;20.10;10.80;;;;;;;;;;2020851;29;20024;-72
2023/05/30 07:13:37;;;;;;;20.77;9.80;;;;;;;;;;2023481;29;20484;-72
2023/05/30 07:14:58;;;;;;;18.02;8.13;;;;;;;;;;2022980;29;20088;-71
2023/05/30 07:16:20;;;;;;;14.90;9.60;;;;;;;;;;2024505;29;20036;-72
2023/05/30 07:17:41;;;;;;;15.88;8.93;;;;;;;;;;2022226;29;20051;-72
2023/05/30 07:19:01;;;;;;;18.83;9.50;;;;;;;;;;2022107;29;20488;-71
2023/05/30 07:20:23;;;;;;;21.60;9.60;;;;;;;;;;2022418;29;20048;-72
2023/05/30 07:21:44;;;;;;;20.60;9.75;;;;;;;;;;2023693;29;20501;-72
2023/05/30 07:23:05;;;;;;;16.67;9.20;;;;;;;;;;2013906;29;20377;-72
2023/05/30 07:24:26;;;;;;;19.90;9.90;;;;;;;;;;2021351;29;20048;-72
2023/05/30 07:25:47;;;;;;;26.02;10.30;;;;;;;;;;2023488;29;20037;-71
2023/05/30 07:27:07;;;;;;;20.88;9.70;;;;;;;;;;2023523;29;20037;-72
2023/05/30 07:28:28;;;;;;;16.80;9.55;;;;;;;;;;2017226;29;20368;-72
2023/05/30 07:29:49;;;;;;;17.30;8.95;;;;;;;;;;2020575;29;20046;-72
2023/05/30 07:31:10;;;;;;;20.63;9.63;;;;;;;;;;2022181;29;20488;-71
2023/05/30 07:32:31;;;;;;;19.25;9.70;;;;;;;;;;2024111;29;20036;-72
2023/05/30 07:33:52;;;;;;;17.05;8.52;;;;;;;;;;2020898;29;20040;-72
2023/05/30 07:35:13;;;;;;;15.77;8.95;;;;;;;;;;2008614;29;20033;-72
2023/05/30 07:36:34;;;;;;;25.08;9.40;;;;;;;;;;2014202;29;20527;-72
2023/05/30 07:37:55;;;;;;;13.82;7.85;;;;;;;;;;2023121;29;20032;-72
2023/05/30 07:39:16;;;;;;;18.27;9.32;;;;;;;;;;2016354;29;20358;-72
2023/05/30 07:40:37;;;;;;;19.63;9.18;;;;;;;;;;2016225;29;20041;-72
2023/05/30 07:41:58;;;;;;;18.75;9.40;;;;;;;;;;2017267;29;20041;-72
2023/05/30 07:43:19;;;;;;;17.98;8.38;;;;;;;;;;2011017;29;20491;-72
2023/05/30 07:44:39;;;;;;;17.13;8.60;;;;;;;;;;2019886;29;20048;-72
2023/05/30 07:46:00;;;;;;;19.88;9.15;;;;;;;;;;2030901;29;20047;-72
2023/05/30 07:47:21;;;;;;;17.80;9.07;;;;;;;;;;2021607;29;20385;-72
2023/05/30 07:48:42;;;;;;;18.52;9.40;;;;;;;;;;2020735;29;20080;-72
2023/05/30 07:50:04;;;;;;;24.27;9.68;;;;;;;;;;2008702;29;20026;-72
2023/05/30 07:51:24;;;;;;;18.05;9.23;;;;;;;;;;2020016;29;20040;-72
2023/05/30 07:52:45;;;;;;;19.98;9.27;;;;;;;;;;2022428;29;20051;-72
2023/05/30 07:54:06;;;;;;;20.52;9.18;;;;;;;;;;2024209;29;20516;-71
2023/05/30 07:55:27;;;;;;;17.75;9.52;;;;;;;;;;2024791;29;20032;-72
2023/05/30 07:56:48;;;;;;;17.88;9.05;;;;;;;;;;2024865;29;20028;-72
2023/05/30 07:58:09;;;;;;;14.52;9.10;;;;;;;;;;2023833;29;20036;-72
2023/05/30 07:59:30;;;;;;;17.50;8.40;;;;;;;;;;2017360;29;20076;-72
2023/05/30 08:00:51;;;;;;;19.60;9.32;;;;;;;;;;2014619;29;20081;-72
2023/05/30 08:02:12;;;;;;;18.65;8.88;;;;;;;;;;2016037;29;20033;-72
2023/05/30 08:03:32;;;;;;;20.65;10.40;;;;;;;;;;2021938;29;20447;-72
2023/05/30 08:04:53;;;;;;;26.40;10.88;;;;;;;;;;2018633;29;20036;-72
2023/05/30 08:06:14;;;;;;;17.05;8.13;;;;;;;;;;2021684;29;20076;-72
2023/05/30 08:07:35;;;;;;;24.10;10.60;;;;;;;;;;2020374;29;20103;-72
2023/05/30 08:08:56;;;;;;;22.83;10.45;;;;;;;;;;2021993;29;20024;-72
2023/05/30 08:10:17;;;;;;;18.92;9.07;;;;;;;;;;2020951;29;20484;-73
2023/05/30 08:11:38;;;;;;;20.25;9.57;;;;;;;;;;2022534;29;20113;-72
2023/05/30 08:12:59;;;;;;;17.60;8.90;;;;;;;;;;2016443;29;20033;-72
2023/05/30 08:14:20;;;;;;;15.88;8.40;;;;;;;;;;2017415;29;20025;-72
2023/05/30 08:15:41;;;;;;;18.60;8.88;;;;;;;;;;2023349;29;20059;-72
2023/05/30 08:17:02;;;;;;;18.92;8.30;;;;;;;;;;2023878;29;20025;-73
2023/05/30 08:18:23;;;;;;;17.52;8.85;;;;;;;;;;2024364;29;20033;-72
2023/05/30 08:19:44;;;;;;;21.77;9.50;;;;;;;;;;2021782;29;20032;-72
2023/05/30 08:21:07;;;;;;;19.67;9.20;;;;;;;;;;2016851;29;20055;-72
2023/05/30 08:22:28;;;;;;;17.90;9.35;;;;;;;;;;2020411;29;20415;-72
2023/05/30 08:23:49;;;;;;;21.17;9.93;;;;;;;;;;2021668;29;20037;-72
2023/05/30 08:25:10;;;;;;;18.83;9.18;;;;;;;;;;2025303;29;20112;-73
2023/05/30 08:26:31;;;;;;;21.35;9.30;;;;;;;;;;2015271;29;20029;-73
2023/05/30 08:27:55;;;;;;;18.85;8.55;;;;;;;;;;2020884;29;20428;-73
2023/05/30 08:29:16;;;;;;;14.10;8.35;;;;;;;;;;2022590;29;20045;-72
2023/05/30 08:30:37;;;;;;;16.55;7.95;;;;;;;;;;2021464;29;20037;-72
2023/05/30 08:31:58;;;;;;;16.60;9.05;;;;;;;;;;2021825;29;20029;-73
2023/05/30 08:33:21;;;;;;;13.07;7.82;;;;;;;;;;2022493;29;20040;-73
2023/05/30 08:34:42;;;;;;;23.25;10.05;;;;;;;;;;2021918;29;20040;-73
2023/05/30 08:36:03;;;;;;;17.03;9.37;;;;;;;;;;2029878;29;20056;-73
2023/05/30 08:37:23;;;;;;;16.30;8.57;;;;;;;;;;2028199;29;20962;-73
2023/05/30 08:38:44;;;;;;;20.63;8.80;;;;;;;;;;2021666;29;20096;-73
2023/05/30 08:40:06;;;;;;;19.27;9.00;;;;;;;;;;2018148;29;20041;-73
2023/05/30 08:41:27;;;;;;;19.52;9.63;;;;;;;;;;2019092;29;20029;-72
2023/05/30 08:42:48;;;;;;;19.13;9.80;;;;;;;;;;2017140;29;20040;-72
2023/05/30 08:44:09;;;;;;;18.92;9.98;;;;;;;;;;2011188;29;20041;-73
2023/05/30 08:45:30;;;;;;;20.35;8.63;;;;;;;;;;2021134;29;20033;-72
2023/05/30 08:46:51;;;;;;;21.25;8.90;;;;;;;;;;2026069;29;20456;-73
2023/05/30 08:48:16;;;;;;;14.10;9.35;;;;;;;;;;2023995;29;20021;-73
2023/05/30 08:49:40;;;;;;;15.57;8.88;;;;;;;;;;2024256;29;20479;-73
2023/05/30 08:51:01;;;;;;;15.95;9.73;;;;;;;;;;2021762;29;20404;-73
2023/05/30 08:52:25;;;;;;;16.85;8.73;;;;;;;;;;2024834;29;20055;-73
2023/05/30 08:53:48;;;;;;;20.50;9.90;;;;;;;;;;2022548;29;20032;-72
2023/05/30 08:55:14;;;;;;;16.27;8.93;;;;;;;;;;2023389;29;20025;-73
2023/05/30 08:56:37;;;;;;;17.63;9.10;;;;;;;;;;2025218;29;20120;-73
2023/05/30 08:58:08;;;;;;;16.33;9.35;;;;;;;;;;2024546;29;20032;-73
2023/05/30 08:59:29;;;;;;;19.98;9.00;;;;;;;;;;2023686;29;20048;-73
2023/05/30 09:00:52;;;;;;;15.18;7.80;;;;;;;;;;2025066;29;20043;-73